Aérodrome :
LOGIN :

S'inscrire | Disclaimer

   EN    FR    IT 

 










Légende :    VFR   VFR Marginal   IFR   IFR Intensif   IFR Très Intensif
Visi : 
Plafond : 
>= 8 km
>= 3000ft
5 à 8 km
1000 à 3000 ft
1500m à 5 km
500 à 1000 ft
800 à 1500m
200 à 500 ft
< 800m
< 200 ft
Symboles :   Orages  Brouillard  Fortes neiges  Fortes précipitations  Vent > 20 kt
SIGMETs :   Divers  Orages  Givrage  Turbulence  Onde Orograph.  Cendres Volcan.






- Altitude de l'aérodrome : 776 ft
- Code IATA : RMS


ETAR - Ramstein Air Base

DERNIER METAR :
  • 291656Z AUTO 03011KT 9999 CLR 21/04 A3020 RMK AO2 SLP229 T02080039 FZRANO $

METARs EXPIRÉS :
  • 291556Z AUTO 03012KT 9999 CLR 21/04 A3021 RMK AO2 SLP235 T02140040 FZRANO $
  • 291456Z AUTO 03011G19KT 9999 FEW075 20/04 A3022 RMK AO2 SLP239 T02020042 57017 FZRANO $

TAF TAF ETAR
Valide du 29 à 10h jusqu'au 30 à 16h UTC


291000Z 2910/3016 06012G20KT 9999 SCT060 510004 QNH3029INS
BECMG 2917/2918 06009KT 9999 SCT060 QNH3022INS
BECMG 3006/3007 06010G20KT 9999 SCT040 510004 QNH3019INS TX22/2914Z TN02/3004Z



MET'MAP, la Météo Aéronautique d'un coup d'oeil ! - Copyright ORBIFLY Décembre 2007 - Disclaimer

ORBIFLY MET'MAP TEAM :

Programmation & Développement : Alexandra Zaïnal
Sur une idée originale de : Baudouin d'Aumeries
Assistance à la programmation : Marc-Olivier Méhu
Soutien technique & logistique : Manuel Goepfert

Contact : metmap@orbifly.com




SOURCES & CREDITS :

   NOAA